createdAt,value
2022-08-23T00:02:02.490Z,19.96
2022-08-23T00:04:35.186Z,19.97
2022-08-23T00:07:06.737Z,19.96
2022-08-23T00:09:36.485Z,19.97
2022-08-23T00:12:11.183Z,19.96
2022-08-23T00:14:46.903Z,19.96
2022-08-23T00:17:33.254Z,19.95
2022-08-23T00:20:04.487Z,19.96
2022-08-23T00:22:34.221Z,19.95
2022-08-23T00:25:04.079Z,19.93
2022-08-23T00:27:34.164Z,19.93
2022-08-23T00:30:10.992Z,19.91
2022-08-23T00:32:42.208Z,19.91
2022-08-23T00:35:26.473Z,19.89
2022-08-23T00:38:31.796Z,19.87
2022-08-23T00:40:51.242Z,19.85
2022-08-23T00:43:38.197Z,19.85
2022-08-23T00:46:35.274Z,19.82
2022-08-23T00:49:09.981Z,19.79
2022-08-23T00:51:53.302Z,19.78
2022-08-23T00:54:25.222Z,19.76
2022-08-23T00:56:56.477Z,19.74
2022-08-23T00:59:26.748Z,19.72
2022-08-23T01:01:59.810Z,19.72
2022-08-23T01:04:31.875Z,19.69
2022-08-23T01:07:06.888Z,19.67
2022-08-23T01:09:36.719Z,19.66
2022-08-23T01:12:11.105Z,19.62
2022-08-23T01:14:44.261Z,19.61
2022-08-23T01:17:20.960Z,19.59
2022-08-23T01:19:55.118Z,19.56
2022-08-23T01:22:30.268Z,19.55
2022-08-23T01:25:07.451Z,19.53
2022-08-23T01:27:39.309Z,19.52
2022-08-23T01:30:13.079Z,19.51
2022-08-23T01:32:47.598Z,19.50
2022-08-23T01:35:18.771Z,19.48
2022-08-23T01:37:49.383Z,19.46
2022-08-23T01:40:21.900Z,19.44
2022-08-23T01:42:51.651Z,19.41
2022-08-23T01:45:21.620Z,19.39
2022-08-23T01:47:51.358Z,19.38
2022-08-23T01:50:21.231Z,19.35
2022-08-23T01:52:51.297Z,19.33
2022-08-23T01:55:24.625Z,19.31
2022-08-23T01:57:58.034Z,19.29
2022-08-23T02:00:32.958Z,19.27
2022-08-23T02:03:03.160Z,19.28
2022-08-23T02:05:33.552Z,19.26
2022-08-23T02:08:23.930Z,19.23
2022-08-23T02:10:56.963Z,19.19
2022-08-23T02:13:27.240Z,19.17
2022-08-23T02:15:58.558Z,19.13
2022-08-23T02:18:29.030Z,19.08
2022-08-23T02:20:58.800Z,19.06
2022-08-23T02:23:29.079Z,19.06
2022-08-23T02:26:01.402Z,19.06
2022-08-23T02:28:31.112Z,19.06
2022-08-23T02:31:00.840Z,19.08
2022-08-23T02:33:32.236Z,19.08
2022-08-23T02:36:02.007Z,19.06
2022-08-23T02:38:32.148Z,19.06
2022-08-23T02:41:04.517Z,19.02
2022-08-23T02:43:38.283Z,19.00
2022-08-23T02:46:10.559Z,19.01
2022-08-23T02:48:40.399Z,19.01
2022-08-23T02:51:11.915Z,19.03
2022-08-23T02:53:41.785Z,19.04
2022-08-23T02:56:21.155Z,19.03
2022-08-23T02:58:54.205Z,19.01
2022-08-23T03:01:27.640Z,18.98
2022-08-23T03:03:58.030Z,18.96
2022-08-23T03:06:27.888Z,18.94
2022-08-23T03:08:58.753Z,18.93
2022-08-23T03:11:31.096Z,18.93
2022-08-23T03:14:01.430Z,18.90
2022-08-23T03:16:31.512Z,18.86
2022-08-23T03:19:02.384Z,18.85
2022-08-23T03:21:32.505Z,18.86
2022-08-23T03:24:05.704Z,18.85
2022-08-23T03:26:40.703Z,18.87
2022-08-23T03:29:10.402Z,18.88
2022-08-23T03:31:40.176Z,18.87
2022-08-23T03:34:10.992Z,18.88
2022-08-23T03:36:40.915Z,18.86
2022-08-23T03:39:10.744Z,18.86
2022-08-23T03:41:43.135Z,18.84
2022-08-23T03:44:12.969Z,18.82
2022-08-23T03:46:42.760Z,18.80
2022-08-23T03:49:12.665Z,18.78
2022-08-23T03:51:42.500Z,18.77
2022-08-23T03:54:12.268Z,18.75
2022-08-23T03:56:54.170Z,18.73
2022-08-23T03:59:24.205Z,18.71
2022-08-23T04:01:53.947Z,18.69
2022-08-23T04:04:23.793Z,18.69
2022-08-23T04:06:53.531Z,18.70
2022-08-23T04:09:23.258Z,18.69
2022-08-23T04:11:55.583Z,18.67
2022-08-23T04:14:25.564Z,18.67
2022-08-23T04:16:55.828Z,18.67
2022-08-23T04:19:26.163Z,18.65
2022-08-23T04:21:56.236Z,18.63
2022-08-23T04:24:26.020Z,18.63
2022-08-23T04:26:58.383Z,18.62
2022-08-23T04:29:34.364Z,18.60
2022-08-23T04:32:05.651Z,18.60
2022-08-23T04:34:40.079Z,18.60
2022-08-23T04:37:09.964Z,18.59
2022-08-23T04:40:01.550Z,18.57
2022-08-23T04:42:31.396Z,18.58
2022-08-23T04:45:01.442Z,18.57
2022-08-23T04:47:31.168Z,18.58
2022-08-23T04:50:00.916Z,18.59
2022-08-23T04:52:30.758Z,18.62
2022-08-23T04:55:00.486Z,18.75
2022-08-23T04:57:32.957Z,18.92
2022-08-23T05:00:02.691Z,19.14
2022-08-23T05:02:32.430Z,19.35
2022-08-23T05:05:02.840Z,19.58
2022-08-23T05:07:42.061Z,19.81
2022-08-23T05:10:15.141Z,20.06
2022-08-23T05:12:48.148Z,20.31
2022-08-23T05:15:17.889Z,20.47
2022-08-23T05:17:47.617Z,20.56
2022-08-23T05:20:17.382Z,20.56
2022-08-23T05:22:47.344Z,20.58
2022-08-23T05:25:17.104Z,20.59
2022-08-23T05:27:49.513Z,20.52
2022-08-23T05:30:19.237Z,20.45
2022-08-23T05:32:49.377Z,20.34
2022-08-23T05:35:19.373Z,20.23
2022-08-23T05:37:49.171Z,20.17
2022-08-23T05:40:19.077Z,20.13
2022-08-23T05:42:51.452Z,20.09
2022-08-23T05:45:21.433Z,20.03
2022-08-23T05:47:51.696Z,19.99
2022-08-23T05:50:25.501Z,19.95
2022-08-23T05:52:55.367Z,19.95
2022-08-23T05:55:34.947Z,19.96
2022-08-23T05:58:07.588Z,19.98
2022-08-23T06:00:40.551Z,20.00
2022-08-23T06:03:10.620Z,20.02
2022-08-23T06:05:43.547Z,20.08
2022-08-23T06:08:13.273Z,20.16
2022-08-23T06:10:43.132Z,20.25
2022-08-23T06:13:15.608Z,20.37
2022-08-23T06:15:46.297Z,20.47
2022-08-23T06:18:16.972Z,20.58
2022-08-23T06:20:46.800Z,20.71
2022-08-23T06:23:16.594Z,20.90
2022-08-23T06:25:46.332Z,21.11
2022-08-23T06:28:18.818Z,21.30
2022-08-23T06:30:57.676Z,21.50
2022-08-23T06:33:29.056Z,21.66
2022-08-23T06:36:06.501Z,21.81
2022-08-23T06:38:37.148Z,21.96
2022-08-23T06:41:09.752Z,22.11
2022-08-23T06:43:43.215Z,22.25
2022-08-23T06:46:14.597Z,22.40
2022-08-23T06:48:47.333Z,22.50
2022-08-23T06:51:22.215Z,22.56
2022-08-23T06:53:55.235Z,22.66
2022-08-23T06:56:25.558Z,22.79
2022-08-23T06:58:58.528Z,22.97
2022-08-23T07:01:49.194Z,23.20
2022-08-23T07:04:21.496Z,23.44
2022-08-23T07:06:51.279Z,23.70
2022-08-23T07:09:21.500Z,23.86
2022-08-23T07:11:51.472Z,24.07
2022-08-23T07:14:25.048Z,24.25
2022-08-23T07:16:57.223Z,24.44
2022-08-23T07:19:30.787Z,24.70
2022-08-23T07:22:01.487Z,24.90
2022-08-23T07:24:33.649Z,25.14
2022-08-23T07:27:07.153Z,25.35
2022-08-23T07:29:40.134Z,25.60
2022-08-23T07:32:10.809Z,25.81
2022-08-23T07:34:40.631Z,26.01
2022-08-23T07:37:11.241Z,26.21
2022-08-23T07:39:46.113Z,26.36
2022-08-23T07:42:22.688Z,26.49
2022-08-23T07:44:55.771Z,26.72
2022-08-23T07:47:28.553Z,26.91
2022-08-23T07:49:58.408Z,27.09
2022-08-23T07:52:28.247Z,27.25
2022-08-23T07:54:57.989Z,27.43
2022-08-23T07:57:29.440Z,27.59
2022-08-23T08:00:01.756Z,27.76
2022-08-23T08:02:31.524Z,27.89
2022-08-23T08:05:01.289Z,28.00
2022-08-23T08:07:31.632Z,28.14
2022-08-23T08:10:06.140Z,28.27
2022-08-23T08:12:36.126Z,28.40
2022-08-23T08:15:09.457Z,28.51
2022-08-23T08:17:39.190Z,28.61
2022-08-23T08:20:10.160Z,28.66
2022-08-23T08:22:40.533Z,28.65
2022-08-23T08:25:13.243Z,28.61
2022-08-23T08:27:43.793Z,28.60
2022-08-23T08:30:17.163Z,28.63
2022-08-23T08:32:47.547Z,28.67
2022-08-23T08:35:17.369Z,28.74
2022-08-23T08:37:47.280Z,28.78
2022-08-23T08:40:23.413Z,28.83
2022-08-23T08:43:10.016Z,28.83
2022-08-23T08:45:58.888Z,28.82
2022-08-23T08:48:30.975Z,28.80
2022-08-23T08:51:04.635Z,28.84
2022-08-23T08:53:40.387Z,28.88
2022-08-23T08:56:21.511Z,28.90
2022-08-23T08:58:56.452Z,28.89
2022-08-23T09:01:29.772Z,28.89
2022-08-23T09:04:00.515Z,28.83
2022-08-23T09:06:36.825Z,28.78
2022-08-23T09:09:18.237Z,28.69
2022-08-23T09:12:08.444Z,28.62
2022-08-23T09:14:52.487Z,28.55
2022-08-23T09:17:34.918Z,28.51
2022-08-23T09:20:07.584Z,28.47
2022-08-23T09:22:42.356Z,28.44
2022-08-23T09:25:13.582Z,28.43
2022-08-23T09:27:45.821Z,28.38
2022-08-23T09:30:19.404Z,28.37
2022-08-23T09:32:52.452Z,28.37
2022-08-23T09:35:25.049Z,28.37
2022-08-23T09:38:00.659Z,28.42
2022-08-23T09:40:41.330Z,28.46
2022-08-23T09:43:16.642Z,28.49
2022-08-23T09:45:59.104Z,28.53
2022-08-23T09:48:40.487Z,28.54
2022-08-23T09:51:20.405Z,28.53
2022-08-23T09:53:53.553Z,28.57
2022-08-23T09:56:27.622Z,28.59
2022-08-23T09:58:57.677Z,28.60
2022-08-23T10:01:29.723Z,28.61
2022-08-23T10:04:17.893Z,28.63
2022-08-23T10:06:48.945Z,28.68
2022-08-23T10:09:28.042Z,28.72
2022-08-23T10:12:00.147Z,28.70
2022-08-23T10:14:33.981Z,28.73
2022-08-23T10:17:13.016Z,28.84
2022-08-23T10:19:56.687Z,28.91
2022-08-23T10:22:29.869Z,28.98
2022-08-23T10:25:08.784Z,29.07
2022-08-23T10:28:00.925Z,29.14
2022-08-23T10:30:39.669Z,29.21
2022-08-23T10:33:18.506Z,29.25
2022-08-23T10:35:59.667Z,29.23
2022-08-23T10:38:41.351Z,29.25
2022-08-23T10:41:46.916Z,29.26
2022-08-23T10:44:33.284Z,29.26
2022-08-23T10:47:22.448Z,29.22
2022-08-23T10:49:55.898Z,29.23
2022-08-23T10:52:34.707Z,29.29
2022-08-23T10:55:17.664Z,29.29
2022-08-23T10:57:51.418Z,29.33
2022-08-23T11:00:24.527Z,29.38
2022-08-23T11:03:02.354Z,29.44
2022-08-23T11:05:35.444Z,29.45
2022-08-23T11:08:11.381Z,29.45
2022-08-23T11:10:56.006Z,29.44
2022-08-23T11:13:29.499Z,29.43
2022-08-23T11:16:02.412Z,29.40
2022-08-23T11:18:43.473Z,29.41
2022-08-23T11:21:44.500Z,29.41
2022-08-23T11:24:57.611Z,29.38
2022-08-23T11:27:36.900Z,29.37
2022-08-23T11:30:39.501Z,29.39
2022-08-23T11:33:19.540Z,29.45
2022-08-23T11:39:27.053Z,29.43
2022-08-23T11:42:09.218Z,29.44
2022-08-23T11:44:44.141Z,29.49
2022-08-23T11:47:14.509Z,29.57
2022-08-23T11:50:00.355Z,29.64
2022-08-23T11:52:54.057Z,29.66
2022-08-23T11:55:57.931Z,29.70
2022-08-23T11:58:37.567Z,29.72
2022-08-23T12:01:10.116Z,29.76
2022-08-23T12:03:55.872Z,29.80
2022-08-23T12:06:50.875Z,29.84
2022-08-23T12:10:03.408Z,29.88
2022-08-23T12:12:42.782Z,29.88
2022-08-23T12:15:15.618Z,29.91
2022-08-23T12:18:14.693Z,29.98
2022-08-23T12:20:48.508Z,30.04
2022-08-23T12:23:23.952Z,30.07
2022-08-23T12:26:06.096Z,30.12
2022-08-23T12:28:45.897Z,30.16
2022-08-23T12:31:32.986Z,30.17
2022-08-23T12:34:18.399Z,30.17
2022-08-23T12:36:57.159Z,30.17
2022-08-23T12:39:32.344Z,30.15
2022-08-23T12:42:08.316Z,30.12
2022-08-23T12:44:40.699Z,30.07
2022-08-23T12:47:17.425Z,30.05
2022-08-23T12:49:59.272Z,30.01
2022-08-23T12:52:31.598Z,29.98
2022-08-23T12:55:01.649Z,29.96
2022-08-23T12:57:38.484Z,29.97
2022-08-23T13:00:22.436Z,29.99
2022-08-23T13:02:59.021Z,29.95
2022-08-23T13:05:37.103Z,29.92
2022-08-23T13:08:11.380Z,29.87
2022-08-23T13:10:43.811Z,29.85
2022-08-23T13:13:16.029Z,29.86
2022-08-23T13:15:52.509Z,29.87
2022-08-23T13:18:35.456Z,29.88
2022-08-23T13:21:22.686Z,29.88
2022-08-23T13:23:52.564Z,29.88
2022-08-23T13:26:31.857Z,29.90
2022-08-23T13:29:11.141Z,29.89
2022-08-23T13:32:03.336Z,29.89
2022-08-23T13:34:46.990Z,29.89
2022-08-23T13:37:23.213Z,29.93
2022-08-23T13:39:56.083Z,29.91
2022-08-23T13:42:35.856Z,29.87
2022-08-23T13:45:16.264Z,29.81
2022-08-23T13:47:54.860Z,29.72
2022-08-23T13:50:28.094Z,29.66
2022-08-23T13:55:51.921Z,29.61
2022-08-23T13:58:31.525Z,29.58
2022-08-23T14:01:03.664Z,29.53
2022-08-23T14:03:36.015Z,29.50
2022-08-23T14:06:05.758Z,29.46
2022-08-23T14:08:35.475Z,29.43
2022-08-23T14:11:05.921Z,29.38
2022-08-23T14:13:37.389Z,29.33
2022-08-23T14:20:31.508Z,29.23
2022-08-23T14:21:54.281Z,29.14
2022-08-23T14:24:26.960Z,29.07
2022-08-23T14:26:57.557Z,29.07
2022-08-23T14:29:30.748Z,29.03
2022-08-23T14:32:01.912Z,28.99
2022-08-23T14:34:34.364Z,28.97
2022-08-23T14:39:54.161Z,28.80
2022-08-23T14:42:25.632Z,28.75
2022-08-23T14:44:55.352Z,28.73
2022-08-23T14:47:25.179Z,28.68
2022-08-23T14:49:57.589Z,28.64
2022-08-23T14:52:27.457Z,28.59
2022-08-23T14:54:57.211Z,28.56
2022-08-23T14:57:26.944Z,28.48
2022-08-23T14:59:59.086Z,28.45
2022-08-23T15:02:30.368Z,28.44
2022-08-23T15:05:02.728Z,28.43
2022-08-23T15:07:32.498Z,28.42
2022-08-23T15:10:02.226Z,28.40
2022-08-23T15:15:23.322Z,28.25
2022-08-23T15:17:57.317Z,28.20
2022-08-23T15:20:32.168Z,28.17
2022-08-23T15:23:02.351Z,28.11
2022-08-23T15:25:34.330Z,28.02
2022-08-23T15:28:06.040Z,27.93
2022-08-23T15:30:37.517Z,27.83
2022-08-23T15:33:07.590Z,27.77
2022-08-23T15:35:45.683Z,27.67
2022-08-23T15:38:17.896Z,27.63
2022-08-23T15:40:48.107Z,27.59
2022-08-23T15:43:18.194Z,27.57
2022-08-23T15:45:48.562Z,27.50
2022-08-23T15:48:24.343Z,27.40
2022-08-23T15:50:56.975Z,27.30
2022-08-23T15:53:26.738Z,27.22
2022-08-23T15:55:56.817Z,27.19
2022-08-23T15:58:28.924Z,27.17
2022-08-23T16:00:58.743Z,27.15
2022-08-23T16:03:28.600Z,27.13
2022-08-23T16:06:01.053Z,27.10
2022-08-23T16:08:36.646Z,27.03
2022-08-23T16:11:12.307Z,26.97
2022-08-23T16:13:43.761Z,26.92
2022-08-23T16:16:19.605Z,26.83
2022-08-23T16:18:50.858Z,26.67
2022-08-23T16:21:25.357Z,26.53
2022-08-23T16:23:55.243Z,26.41
2022-08-23T16:26:34.481Z,26.27
2022-08-23T16:29:06.874Z,26.19
2022-08-23T16:31:39.933Z,26.10
2022-08-23T16:34:12.623Z,26.04
2022-08-23T16:36:48.067Z,25.96
2022-08-23T16:39:19.344Z,25.90
2022-08-23T16:41:49.114Z,25.86
2022-08-23T16:44:20.079Z,25.86
2022-08-23T16:46:49.851Z,25.85
2022-08-23T16:49:21.402Z,25.86
2022-08-23T16:51:53.780Z,25.84
2022-08-23T16:54:23.547Z,25.81
2022-08-23T16:56:53.260Z,25.78
2022-08-23T16:59:23.197Z,25.77
2022-08-23T17:01:56.120Z,25.75
2022-08-23T17:04:30.268Z,25.69
2022-08-23T17:07:03.463Z,25.64
2022-08-23T17:09:33.254Z,25.59
2022-08-23T17:12:03.642Z,25.54
2022-08-23T17:14:33.391Z,25.48
2022-08-23T17:17:03.097Z,25.48
2022-08-23T17:19:32.874Z,25.47
2022-08-23T17:22:05.271Z,25.47
2022-08-23T17:24:34.983Z,25.42
2022-08-23T17:27:04.803Z,25.41
2022-08-23T17:29:37.528Z,25.37
2022-08-23T17:32:07.792Z,25.33
2022-08-23T17:34:39.283Z,25.25
2022-08-23T17:37:18.128Z,25.18
2022-08-23T17:39:48.046Z,25.15
2022-08-23T17:42:17.821Z,25.13
2022-08-23T17:44:48.116Z,25.14
2022-08-23T17:47:20.712Z,25.11
2022-08-23T17:49:50.682Z,25.08
2022-08-23T17:52:23.319Z,25.04
2022-08-23T17:54:53.015Z,25.01
2022-08-23T17:57:23.268Z,24.99
2022-08-23T17:59:53.365Z,25.00
2022-08-23T18:02:23.530Z,24.99
2022-08-23T18:04:53.248Z,24.98
2022-08-23T18:07:26.389Z,24.98
2022-08-23T18:09:56.099Z,24.92
2022-08-23T18:12:25.843Z,24.86
2022-08-23T18:14:55.587Z,24.77
2022-08-23T18:17:25.316Z,24.70
2022-08-23T18:19:55.045Z,24.62
2022-08-23T18:22:27.678Z,24.57
2022-08-23T18:24:57.392Z,24.50
2022-08-23T18:27:39.596Z,24.46
2022-08-23T18:30:12.639Z,24.46
2022-08-23T18:32:42.377Z,24.50
2022-08-23T18:35:12.625Z,24.50
2022-08-23T18:37:45.184Z,24.53
2022-08-23T18:40:15.737Z,24.53
2022-08-23T18:42:45.509Z,24.53
2022-08-23T18:45:16.701Z,24.52
2022-08-23T18:47:49.084Z,24.50
2022-08-23T18:50:19.862Z,24.47
2022-08-23T18:52:52.180Z,24.45
2022-08-23T18:55:21.989Z,24.46
2022-08-23T18:57:51.696Z,24.46
2022-08-23T19:00:22.029Z,24.45
2022-08-23T19:02:52.824Z,24.46
2022-08-23T19:05:22.715Z,24.45
2022-08-23T19:07:55.144Z,24.45
2022-08-23T19:10:25.259Z,24.45
2022-08-23T19:12:55.251Z,24.44
2022-08-23T19:15:25.095Z,24.40
2022-08-23T19:17:58.068Z,24.37
2022-08-23T19:20:28.412Z,24.33
2022-08-23T19:23:01.689Z,24.30
2022-08-23T19:25:34.051Z,24.24
2022-08-23T19:28:03.840Z,24.17
2022-08-23T19:30:33.957Z,24.13
2022-08-23T19:33:03.939Z,24.12
2022-08-23T19:35:33.913Z,24.10
2022-08-23T19:38:06.424Z,24.08
2022-08-23T19:40:36.978Z,24.03
2022-08-23T19:43:07.425Z,24.00
2022-08-23T19:45:37.330Z,23.97
2022-08-23T19:48:08.075Z,23.95
2022-08-23T19:50:37.912Z,23.92
2022-08-23T19:53:10.866Z,23.90
2022-08-23T19:55:43.556Z,23.89
2022-08-23T19:58:16.328Z,23.89
2022-08-23T20:00:46.158Z,23.92
2022-08-23T20:03:15.947Z,23.93
2022-08-23T20:05:45.644Z,23.94
2022-08-23T20:08:17.989Z,23.95
2022-08-23T20:10:47.735Z,23.94
2022-08-23T20:13:17.475Z,23.92
2022-08-23T20:15:47.234Z,23.90
2022-08-23T20:18:16.961Z,23.86
2022-08-23T20:20:46.728Z,23.83
2022-08-23T20:23:31.483Z,23.81
2022-08-23T20:26:01.236Z,23.80
2022-08-23T20:28:31.588Z,23.80
2022-08-23T20:31:08.190Z,23.80
2022-08-23T20:33:37.925Z,23.80
2022-08-23T20:36:07.808Z,23.80
2022-08-23T20:38:40.161Z,23.80
2022-08-23T20:41:10.288Z,23.79
2022-08-23T20:43:49.496Z,23.79
2022-08-23T20:46:19.390Z,23.78
2022-08-23T20:48:49.514Z,23.74
2022-08-23T20:51:19.240Z,23.71
2022-08-23T20:53:52.043Z,23.70
2022-08-23T20:56:23.524Z,23.69
2022-08-23T20:58:54.314Z,23.66
2022-08-23T21:01:25.091Z,23.64
2022-08-23T21:03:55.363Z,23.64
2022-08-23T21:06:28.153Z,23.62
2022-08-23T21:09:02.476Z,23.59
2022-08-23T21:11:32.215Z,23.53
2022-08-23T21:14:01.981Z,23.48
2022-08-23T21:16:31.903Z,23.45
2022-08-23T21:19:01.698Z,23.42
2022-08-23T21:21:32.068Z,23.42
2022-08-23T21:24:04.530Z,23.41
2022-08-23T21:26:34.710Z,23.42
2022-08-23T21:29:04.923Z,23.42
2022-08-23T21:31:34.827Z,23.42
2022-08-23T21:34:04.836Z,23.42
2022-08-23T21:36:34.837Z,23.43
2022-08-23T21:39:07.714Z,23.43
2022-08-23T21:41:41.565Z,23.42
2022-08-23T21:44:14.026Z,23.39
2022-08-23T21:46:44.225Z,23.37
2022-08-23T21:49:14.539Z,23.36
2022-08-23T21:51:44.995Z,23.35
2022-08-23T21:54:18.469Z,23.35
2022-08-23T21:56:48.705Z,23.30
2022-08-23T21:59:20.871Z,23.28
2022-08-23T22:01:50.862Z,23.26
2022-08-23T22:04:20.785Z,23.26
2022-08-23T22:06:50.889Z,23.24
2022-08-23T22:09:31.423Z,23.24
2022-08-23T22:12:02.148Z,23.22
2022-08-23T22:14:32.684Z,23.21
2022-08-23T22:17:03.196Z,23.22
2022-08-23T22:19:32.948Z,23.21
2022-08-23T22:22:03.063Z,23.20
2022-08-23T22:24:35.431Z,23.19
2022-08-23T22:27:05.137Z,23.20
2022-08-23T22:29:35.985Z,23.20
2022-08-23T22:32:06.218Z,23.18
2022-08-23T22:34:37.351Z,23.17
2022-08-23T22:37:07.548Z,23.14
2022-08-23T22:39:39.907Z,23.12
2022-08-23T22:42:10.372Z,23.11
2022-08-23T22:44:40.483Z,23.11
2022-08-23T22:47:10.250Z,23.10
2022-08-23T22:49:41.087Z,23.10
2022-08-23T22:52:10.774Z,23.08
2022-08-23T22:54:43.216Z,23.08
2022-08-23T22:57:13.167Z,23.06
2022-08-23T22:59:42.908Z,23.06
2022-08-23T23:02:13.995Z,23.04
2022-08-23T23:04:45.746Z,23.03
2022-08-23T23:07:35.930Z,23.01
2022-08-23T23:10:09.212Z,22.98
2022-08-23T23:12:39.525Z,22.97
2022-08-23T23:15:10.475Z,22.97
2022-08-23T23:17:40.183Z,22.96
2022-08-23T23:20:23.849Z,22.94
2022-08-23T23:22:53.590Z,22.90
2022-08-23T23:25:26.357Z,22.88
2022-08-23T23:27:56.067Z,22.84
2022-08-23T23:32:59.192Z,22.80
2022-08-23T23:35:29.848Z,22.78
2022-08-23T23:38:00.932Z,22.77
2022-08-23T23:40:33.710Z,22.74
2022-08-23T23:43:03.726Z,22.73
2022-08-23T23:45:33.530Z,22.71
2022-08-23T23:48:03.372Z,22.71
2022-08-23T23:50:38.116Z,22.67
2022-08-23T23:53:14.714Z,22.67
2022-08-23T23:55:48.194Z,22.65
2022-08-23T23:58:17.935Z,22.63
